createdAt,value
2019-03-29T00:00:26.678Z,9.76
2019-03-29T00:01:26.654Z,9.76
2019-03-29T00:02:26.650Z,9.75
2019-03-29T00:03:26.647Z,9.78
2019-03-29T00:04:27.039Z,9.79
2019-03-29T00:06:26.614Z,9.79
2019-03-29T00:07:39.043Z,9.75
2019-03-29T00:08:27.613Z,9.81
2019-03-29T00:09:26.630Z,9.81
2019-03-29T00:10:26.568Z,9.75
2019-03-29T00:11:26.563Z,9.79
2019-03-29T00:12:26.553Z,9.86
2019-03-29T00:13:26.568Z,9.75
2019-03-29T00:14:26.523Z,9.76
2019-03-29T00:15:26.682Z,9.81
2019-03-29T00:16:26.520Z,9.79
2019-03-29T00:17:26.497Z,9.76
2019-03-29T00:18:26.514Z,9.71
2019-03-29T00:19:27.237Z,9.79
2019-03-29T00:20:26.460Z,9.79
2019-03-29T00:21:26.470Z,9.78
2019-03-29T00:22:26.434Z,9.83
2019-03-29T00:23:26.447Z,9.79
2019-03-29T00:24:26.416Z,9.81
2019-03-29T00:25:26.404Z,9.87
2019-03-29T00:26:26.400Z,9.83
2019-03-29T00:27:26.403Z,9.79
2019-03-29T00:28:26.419Z,9.79
2019-03-29T00:29:26.395Z,9.76
2019-03-29T00:30:26.430Z,9.84
2019-03-29T00:31:26.392Z,9.79
2019-03-29T00:32:26.354Z,9.71
2019-03-29T00:33:26.409Z,9.84
2019-03-29T00:34:26.304Z,9.76
2019-03-29T00:35:26.292Z,9.72
2019-03-29T00:36:26.277Z,9.76
2019-03-29T00:37:26.267Z,9.79
2019-03-29T00:38:26.286Z,9.79
2019-03-29T00:39:26.245Z,9.76
2019-03-29T00:40:26.242Z,9.75
2019-03-29T00:41:26.220Z,9.75
2019-03-29T00:42:26.273Z,9.79
2019-03-29T00:43:26.212Z,9.78
2019-03-29T00:44:26.961Z,9.81
2019-03-29T00:45:26.228Z,9.84
2019-03-29T00:46:26.172Z,9.84
2019-03-29T00:47:26.245Z,9.84
2019-03-29T00:48:35.810Z,9.84
2019-03-29T00:49:26.132Z,9.81
2019-03-29T00:50:26.117Z,9.81
2019-03-29T00:51:26.123Z,9.87
2019-03-29T00:52:26.103Z,9.87
2019-03-29T00:53:26.114Z,9.87
2019-03-29T00:54:26.108Z,9.90
2019-03-29T00:55:26.069Z,9.87
2019-03-29T00:56:26.049Z,9.84
2019-03-29T00:57:26.044Z,9.78
2019-03-29T00:58:26.029Z,9.87
2019-03-29T00:59:26.072Z,9.75
2019-03-29T01:00:26.013Z,9.78
2019-03-29T01:01:26.348Z,9.75
2019-03-29T01:02:25.992Z,9.76
2019-03-29T01:03:25.998Z,9.74
2019-03-29T01:04:26.058Z,9.69
2019-03-29T01:05:25.958Z,9.76
2019-03-29T01:06:25.951Z,9.72
2019-03-29T01:07:25.950Z,9.71
2019-03-29T01:08:25.942Z,9.78
2019-03-29T01:09:34.219Z,9.75
2019-03-29T01:10:25.928Z,9.75
2019-03-29T01:11:25.890Z,9.69
2019-03-29T01:12:25.886Z,9.69
2019-03-29T01:13:25.868Z,9.74
2019-03-29T01:14:25.902Z,9.68
2019-03-29T01:15:25.870Z,9.71
2019-03-29T01:16:25.840Z,9.65
2019-03-29T01:17:25.833Z,9.74
2019-03-29T01:18:25.810Z,9.66
2019-03-29T01:19:25.839Z,9.69
2019-03-29T01:20:25.802Z,9.71
2019-03-29T01:21:25.787Z,9.74
2019-03-29T01:22:25.779Z,9.75
2019-03-29T01:23:35.075Z,9.76
2019-03-29T01:25:42.231Z,9.78
2019-03-29T01:26:42.182Z,9.71
2019-03-29T01:27:42.179Z,9.74
2019-03-29T01:28:42.176Z,9.74
2019-03-29T01:29:42.199Z,9.79
2019-03-29T01:30:42.152Z,9.74
2019-03-29T01:31:42.156Z,9.79
2019-03-29T01:32:42.118Z,9.69
2019-03-29T01:33:42.122Z,9.71
2019-03-29T01:34:43.046Z,9.69
2019-03-29T01:36:43.159Z,9.66
2019-03-29T01:37:42.064Z,9.65
2019-03-29T01:38:42.096Z,9.65
2019-03-29T01:39:42.313Z,9.57
2019-03-29T01:40:42.078Z,9.66
2019-03-29T01:41:42.032Z,9.65
2019-03-29T01:42:42.025Z,9.71
2019-03-29T01:43:42.025Z,9.65
2019-03-29T01:44:42.032Z,9.66
2019-03-29T01:45:42.052Z,9.65
2019-03-29T01:46:42.006Z,9.65
2019-03-29T01:47:41.962Z,9.64
2019-03-29T01:48:41.970Z,9.65
2019-03-29T01:49:42.226Z,9.60
2019-03-29T01:50:41.955Z,9.60
2019-03-29T01:51:41.945Z,9.65
2019-03-29T01:53:42.974Z,9.65
2019-03-29T01:54:41.914Z,9.69
2019-03-29T01:55:41.920Z,9.71
2019-03-29T01:56:41.887Z,9.65
2019-03-29T01:57:41.860Z,9.69
2019-03-29T01:58:41.849Z,9.76
2019-03-29T01:59:42.333Z,9.76
2019-03-29T02:00:41.851Z,9.79
2019-03-29T02:01:41.821Z,9.75
2019-03-29T02:02:41.823Z,9.83
2019-03-29T02:03:41.824Z,9.81
2019-03-29T02:04:41.794Z,9.84
2019-03-29T02:05:41.813Z,9.84
2019-03-29T02:06:41.784Z,9.89
2019-03-29T02:07:41.767Z,9.86
2019-03-29T02:08:41.754Z,9.81
2019-03-29T02:09:41.749Z,9.84
2019-03-29T02:10:41.763Z,9.81
2019-03-29T02:11:41.722Z,9.81
2019-03-29T02:12:41.718Z,9.81
2019-03-29T02:13:41.697Z,9.75
2019-03-29T02:14:41.677Z,9.81
2019-03-29T02:15:41.697Z,9.78
2019-03-29T02:16:41.654Z,9.79
2019-03-29T02:17:41.659Z,9.76
2019-03-29T02:18:41.641Z,9.79
2019-03-29T02:19:41.663Z,9.76
2019-03-29T02:20:41.612Z,9.76
2019-03-29T02:21:42.963Z,9.78
2019-03-29T02:22:41.624Z,9.76
2019-03-29T02:23:41.594Z,9.78
2019-03-29T02:24:41.609Z,9.75
2019-03-29T02:25:42.413Z,9.78
2019-03-29T02:26:41.585Z,9.84
2019-03-29T02:27:41.557Z,9.83
2019-03-29T02:28:41.542Z,9.78
2019-03-29T02:29:41.549Z,9.83
2019-03-29T02:30:41.511Z,9.71
2019-03-29T02:31:48.818Z,9.75
2019-03-29T02:32:41.477Z,9.75
2019-03-29T02:33:41.501Z,9.75
2019-03-29T02:34:43.621Z,9.76
2019-03-29T02:35:41.498Z,9.81
2019-03-29T02:36:41.476Z,9.78
2019-03-29T02:37:41.577Z,9.83
2019-03-29T02:38:55.201Z,9.84
2019-03-29T02:39:42.420Z,9.81
2019-03-29T02:40:41.398Z,9.79
2019-03-29T02:41:41.452Z,9.78
2019-03-29T02:42:42.791Z,9.74
2019-03-29T02:43:41.363Z,9.75
2019-03-29T02:44:41.372Z,9.75
2019-03-29T02:45:41.342Z,9.74
2019-03-29T02:46:41.354Z,9.76
2019-03-29T02:47:41.353Z,9.75
2019-03-29T02:48:41.346Z,9.79
2019-03-29T02:49:41.303Z,9.75
2019-03-29T02:50:41.313Z,9.75
2019-03-29T02:51:41.451Z,9.83
2019-03-29T02:52:41.302Z,9.74
2019-03-29T02:53:41.264Z,9.74
2019-03-29T02:54:41.322Z,9.79
2019-03-29T02:55:41.245Z,9.72
2019-03-29T02:57:42.239Z,9.78
2019-03-29T02:58:41.217Z,9.74
2019-03-29T02:59:41.207Z,9.84
2019-03-29T03:00:41.193Z,9.87
2019-03-29T03:01:41.172Z,9.89
2019-03-29T03:02:41.190Z,9.83
2019-03-29T03:03:41.156Z,9.86
2019-03-29T03:04:41.161Z,9.89
2019-03-29T03:05:41.162Z,9.79
2019-03-29T03:06:41.120Z,9.86
2019-03-29T03:07:41.175Z,9.91
2019-03-29T03:08:41.096Z,9.87
2019-03-29T03:09:41.219Z,9.90
2019-03-29T03:10:41.074Z,9.86
2019-03-29T03:11:41.084Z,9.79
2019-03-29T03:12:41.703Z,9.83
2019-03-29T03:13:41.154Z,9.74
2019-03-29T03:14:41.070Z,9.79
2019-03-29T03:15:41.038Z,9.81
2019-03-29T03:16:41.023Z,9.79
2019-03-29T03:17:41.024Z,9.78
2019-03-29T03:18:40.990Z,9.72
2019-03-29T03:19:41.037Z,9.69
2019-03-29T03:20:40.968Z,9.72
2019-03-29T03:21:40.965Z,9.75
2019-03-29T03:22:40.971Z,9.74
2019-03-29T03:23:40.983Z,9.78
2019-03-29T03:24:40.924Z,9.75
2019-03-29T03:25:40.917Z,9.75
2019-03-29T03:26:40.940Z,9.74
2019-03-29T03:27:40.976Z,9.75
2019-03-29T03:28:40.916Z,9.79
2019-03-29T03:29:40.882Z,9.74
2019-03-29T03:30:41.292Z,9.75
2019-03-29T03:31:40.851Z,9.71
2019-03-29T03:32:40.919Z,9.74
2019-03-29T03:33:40.930Z,9.69
2019-03-29T03:34:40.834Z,9.74
2019-03-29T03:35:40.841Z,9.68
2019-03-29T03:36:40.801Z,9.68
2019-03-29T03:37:40.791Z,9.64
2019-03-29T03:38:49.075Z,9.64
2019-03-29T03:39:40.773Z,9.68
2019-03-29T03:40:40.784Z,9.64
2019-03-29T03:41:40.748Z,9.65
2019-03-29T03:42:40.733Z,9.64
2019-03-29T03:43:40.750Z,9.66
2019-03-29T03:44:40.801Z,9.75
2019-03-29T03:45:40.703Z,9.72
2019-03-29T03:46:40.702Z,9.68
2019-03-29T03:47:40.701Z,9.72
2019-03-29T03:48:40.682Z,9.66
2019-03-29T03:49:40.815Z,9.72
2019-03-29T03:50:40.709Z,9.69
2019-03-29T03:51:40.648Z,9.61
2019-03-29T03:52:40.723Z,9.64
2019-03-29T03:53:40.618Z,9.72
2019-03-29T03:54:48.926Z,9.64
2019-03-29T03:55:41.331Z,9.66
2019-03-29T03:56:40.607Z,9.74
2019-03-29T03:57:40.589Z,9.68
2019-03-29T03:58:40.571Z,9.69
2019-03-29T03:59:40.559Z,9.72
2019-03-29T04:00:40.564Z,9.65
2019-03-29T04:01:40.597Z,9.76
2019-03-29T04:02:40.531Z,9.78
2019-03-29T04:03:40.536Z,9.78
2019-03-29T04:04:40.536Z,9.78
2019-03-29T04:05:40.533Z,9.75
2019-03-29T04:06:40.491Z,9.68
2019-03-29T04:07:40.470Z,9.76
2019-03-29T04:08:40.475Z,9.78
2019-03-29T04:09:50.714Z,9.69
2019-03-29T04:10:42.330Z,9.74
2019-03-29T04:11:40.422Z,9.75
2019-03-29T04:12:40.415Z,9.64
2019-03-29T04:13:40.417Z,9.64
2019-03-29T04:14:40.406Z,9.74
2019-03-29T04:15:40.412Z,9.66
2019-03-29T04:16:40.393Z,9.66
2019-03-29T04:17:40.456Z,9.72
2019-03-29T04:18:40.362Z,9.71
2019-03-29T04:19:40.341Z,9.64
2019-03-29T04:20:40.375Z,9.74
2019-03-29T04:21:40.331Z,9.60
2019-03-29T04:22:40.314Z,9.71
2019-03-29T04:23:49.387Z,9.74
2019-03-29T04:24:40.312Z,9.74
2019-03-29T04:25:40.281Z,9.64
2019-03-29T04:26:40.314Z,9.69
2019-03-29T04:27:40.292Z,9.74
2019-03-29T04:28:40.249Z,9.71
2019-03-29T04:29:40.243Z,9.68
2019-03-29T04:30:40.236Z,9.66
2019-03-29T04:31:40.254Z,9.74
2019-03-29T04:32:40.223Z,9.69
2019-03-29T04:33:40.191Z,9.69
2019-03-29T04:34:40.185Z,9.74
2019-03-29T04:35:40.170Z,9.66
2019-03-29T04:36:40.190Z,9.74
2019-03-29T04:37:40.170Z,9.61
2019-03-29T04:38:40.145Z,9.78
2019-03-29T04:39:40.143Z,9.72
2019-03-29T04:40:40.119Z,9.74
2019-03-29T04:41:40.134Z,9.74
2019-03-29T04:42:40.104Z,9.69
2019-03-29T04:43:40.118Z,9.78
2019-03-29T04:44:40.081Z,9.65
2019-03-29T04:45:40.087Z,9.71
2019-03-29T04:46:40.126Z,9.69
2019-03-29T04:47:40.052Z,9.74
2019-03-29T04:48:40.048Z,9.64
2019-03-29T04:49:40.035Z,9.71
2019-03-29T04:50:40.011Z,9.74
2019-03-29T04:51:40.017Z,9.66
2019-03-29T04:52:40.009Z,9.72
2019-03-29T04:53:39.989Z,9.75
2019-03-29T04:54:39.977Z,9.66
2019-03-29T04:55:39.961Z,9.71
2019-03-29T04:56:39.989Z,9.76
2019-03-29T04:57:39.957Z,9.71
2019-03-29T04:58:39.929Z,9.75
2019-03-29T04:59:39.925Z,9.72
2019-03-29T05:00:39.916Z,9.78
2019-03-29T05:01:39.896Z,9.71
2019-03-29T05:02:39.914Z,9.66
2019-03-29T05:03:39.877Z,9.71
2019-03-29T05:04:39.865Z,9.74
2019-03-29T05:05:39.857Z,9.65
2019-03-29T05:06:39.844Z,9.69
2019-03-29T05:07:39.878Z,9.74
2019-03-29T05:08:39.830Z,9.74
2019-03-29T05:09:39.817Z,9.71
2019-03-29T05:10:39.803Z,9.78
2019-03-29T05:11:39.793Z,9.76
2019-03-29T05:12:39.828Z,9.75
2019-03-29T05:13:39.766Z,9.74
2019-03-29T05:14:39.757Z,9.75
2019-03-29T05:15:39.759Z,9.79
2019-03-29T05:16:39.767Z,9.74
2019-03-29T05:17:39.781Z,9.71
2019-03-29T05:18:39.717Z,9.75
2019-03-29T05:19:39.711Z,9.74
2019-03-29T05:20:40.399Z,9.74
2019-03-29T05:21:39.692Z,9.74
2019-03-29T05:22:39.710Z,9.74
2019-03-29T05:23:39.675Z,9.74
2019-03-29T05:25:56.552Z,9.78
2019-03-29T05:26:56.531Z,9.79
2019-03-29T05:27:56.549Z,9.83
2019-03-29T05:28:56.509Z,9.86
2019-03-29T05:29:56.505Z,9.78
2019-03-29T05:30:56.493Z,9.84
2019-03-29T05:31:56.522Z,9.81
2019-03-29T05:32:56.489Z,9.78
2019-03-29T05:33:56.467Z,9.84
2019-03-29T05:34:56.440Z,9.83
2019-03-29T05:35:56.450Z,9.91
2019-03-29T05:36:58.438Z,9.91
2019-03-29T05:37:56.430Z,9.87
2019-03-29T05:38:56.425Z,9.91
2019-03-29T05:39:56.394Z,9.96
2019-03-29T05:40:56.378Z,9.94
2019-03-29T05:41:56.370Z,9.97
2019-03-29T05:42:56.411Z,9.97
2019-03-29T05:43:56.356Z,9.97
2019-03-29T05:44:56.343Z,9.97
2019-03-29T05:45:56.329Z,9.97
2019-03-29T05:46:56.319Z,9.97
2019-03-29T05:47:56.339Z,9.99
2019-03-29T05:48:56.321Z,9.96
2019-03-29T05:49:56.303Z,10.01
2019-03-29T05:50:56.279Z,9.96
2019-03-29T05:51:56.275Z,10.04
2019-03-29T05:52:56.289Z,10.11
2019-03-29T05:53:56.268Z,10.07
2019-03-29T05:54:56.235Z,10.04
2019-03-29T05:55:56.233Z,10.04
2019-03-29T05:56:56.205Z,10.09
2019-03-29T05:57:56.228Z,9.96
2019-03-29T05:58:56.238Z,10.08
2019-03-29T05:59:56.176Z,10.17
2019-03-29T06:00:56.181Z,10.12
2019-03-29T06:01:56.157Z,10.15
2019-03-29T06:02:56.163Z,10.20
2019-03-29T06:03:56.202Z,10.18
2019-03-29T06:04:56.137Z,10.12
2019-03-29T06:05:56.119Z,10.15
2019-03-29T06:06:56.111Z,10.20
2019-03-29T06:07:56.166Z,10.14
2019-03-29T06:08:56.079Z,10.08
2019-03-29T06:09:56.078Z,10.20
2019-03-29T06:10:56.075Z,10.15
2019-03-29T06:11:56.096Z,10.18
2019-03-29T06:12:56.063Z,10.18
2019-03-29T06:13:56.073Z,10.18
2019-03-29T06:14:56.023Z,10.26
2019-03-29T06:15:56.082Z,10.25
2019-03-29T06:16:56.007Z,10.26
2019-03-29T06:17:55.999Z,10.29
2019-03-29T06:18:55.997Z,10.18
2019-03-29T06:19:56.036Z,10.23
2019-03-29T06:20:55.959Z,10.26
2019-03-29T06:21:55.957Z,10.25
2019-03-29T06:24:05.615Z,10.30
2019-03-29T06:25:05.573Z,10.26
2019-03-29T06:26:06.499Z,10.25
2019-03-29T06:27:05.563Z,10.22
2019-03-29T06:28:05.577Z,10.27
2019-03-29T06:29:05.564Z,10.34
2019-03-29T06:30:05.516Z,10.36
2019-03-29T06:31:05.515Z,10.36
2019-03-29T06:32:05.535Z,10.41
2019-03-29T06:33:05.519Z,10.40
2019-03-29T06:34:05.501Z,10.38
2019-03-29T06:35:05.521Z,10.38
2019-03-29T06:36:05.450Z,10.38
2019-03-29T06:37:05.440Z,10.41
2019-03-29T06:38:05.462Z,10.42
2019-03-29T06:39:05.444Z,10.41
2019-03-29T06:40:05.487Z,10.38
2019-03-29T06:41:05.403Z,10.45
2019-03-29T06:42:05.401Z,10.45
2019-03-29T06:43:05.419Z,10.44
2019-03-29T06:44:05.395Z,10.42
2019-03-29T06:45:05.394Z,10.38
2019-03-29T06:46:05.361Z,10.40
2019-03-29T06:47:05.350Z,10.38
2019-03-29T06:48:05.353Z,10.40
2019-03-29T06:49:05.337Z,10.38
2019-03-29T06:50:05.327Z,10.45
2019-03-29T06:51:05.395Z,10.51
2019-03-29T06:52:05.305Z,10.45
2019-03-29T06:53:05.309Z,10.41
2019-03-29T06:54:05.291Z,10.41
2019-03-29T06:55:05.258Z,10.40
2019-03-29T06:56:05.244Z,10.44
2019-03-29T06:57:20.115Z,10.42
2019-03-29T06:58:05.343Z,10.63
2019-03-29T06:59:05.246Z,10.59
2019-03-29T07:00:05.243Z,10.68
2019-03-29T07:01:05.197Z,10.70
2019-03-29T07:02:05.179Z,10.74
2019-03-29T07:03:05.173Z,10.74
2019-03-29T07:04:05.186Z,10.76
2019-03-29T07:05:17.421Z,10.70
2019-03-29T07:06:05.139Z,10.73
2019-03-29T07:07:05.115Z,10.71
2019-03-29T07:09:06.190Z,10.78
2019-03-29T07:10:05.206Z,10.76
2019-03-29T07:11:16.749Z,10.74
2019-03-29T07:12:06.073Z,10.79
2019-03-29T07:13:05.071Z,10.79
2019-03-29T07:14:05.076Z,10.79
2019-03-29T07:15:05.054Z,10.82
2019-03-29T07:16:05.919Z,10.84
2019-03-29T07:17:05.096Z,10.92
2019-03-29T07:18:10.494Z,10.94
2019-03-29T07:19:07.920Z,10.96
2019-03-29T07:20:06.423Z,11.03
2019-03-29T07:21:04.998Z,10.99
2019-03-29T07:22:04.978Z,11.04
2019-03-29T07:23:04.959Z,11.04
2019-03-29T07:24:04.962Z,11.02
2019-03-29T07:25:10.085Z,11.00
2019-03-29T07:26:04.971Z,10.94
2019-03-29T07:27:04.943Z,11.00
2019-03-29T07:28:04.903Z,10.91
2019-03-29T07:29:05.043Z,10.96
2019-03-29T07:30:07.455Z,10.97
2019-03-29T07:31:05.481Z,10.96
2019-03-29T07:32:07.871Z,10.81
2019-03-29T07:33:04.870Z,10.82
2019-03-29T07:34:04.831Z,10.92
2019-03-29T07:35:06.946Z,10.89
2019-03-29T07:36:04.810Z,11.02
2019-03-29T07:37:05.955Z,11.00
2019-03-29T07:38:04.807Z,11.02
2019-03-29T07:39:04.784Z,11.00
2019-03-29T07:40:04.826Z,11.07
2019-03-29T07:41:04.763Z,11.03
2019-03-29T07:42:04.767Z,10.99
2019-03-29T07:43:04.765Z,11.11
2019-03-29T07:44:04.755Z,11.09
2019-03-29T07:45:04.762Z,11.10
2019-03-29T07:46:04.719Z,11.09
2019-03-29T07:47:05.011Z,11.07
2019-03-29T07:48:06.653Z,11.00
2019-03-29T07:49:06.517Z,11.09
2019-03-29T07:50:04.861Z,11.00
2019-03-29T07:51:04.688Z,10.96
2019-03-29T07:52:06.435Z,11.10
2019-03-29T07:53:04.874Z,11.09
2019-03-29T07:54:05.684Z,11.11
2019-03-29T07:55:04.661Z,11.21
2019-03-29T07:56:04.663Z,11.18
2019-03-29T07:57:04.901Z,11.25
2019-03-29T07:58:05.428Z,11.35
2019-03-29T07:59:05.570Z,11.37
2019-03-29T08:00:04.763Z,11.52
2019-03-29T08:01:04.574Z,11.49
2019-03-29T08:02:04.626Z,11.51
2019-03-29T08:03:04.521Z,11.54
2019-03-29T08:04:04.539Z,11.57
2019-03-29T08:05:05.431Z,11.57
2019-03-29T08:06:04.520Z,11.60
2019-03-29T08:07:06.206Z,11.54
2019-03-29T08:08:04.466Z,11.57
2019-03-29T08:09:04.458Z,11.46
2019-03-29T08:10:04.474Z,11.54
2019-03-29T08:11:04.638Z,11.58
2019-03-29T08:12:06.712Z,11.57
2019-03-29T08:13:04.956Z,11.72
2019-03-29T08:14:05.175Z,11.69
2019-03-29T08:15:20.017Z,11.76
2019-03-29T08:16:06.690Z,11.70
2019-03-29T08:17:04.405Z,11.73
2019-03-29T08:18:04.414Z,11.58
2019-03-29T08:19:04.425Z,11.61
2019-03-29T08:20:36.680Z,11.61
2019-03-29T08:21:05.354Z,11.60
2019-03-29T08:22:04.500Z,11.55
2019-03-29T08:23:05.033Z,11.49
2019-03-29T08:24:04.310Z,11.54
2019-03-29T08:25:11.535Z,11.58
2019-03-29T08:26:04.322Z,11.61
2019-03-29T08:27:04.276Z,11.61
2019-03-29T08:28:04.261Z,11.60
2019-03-29T08:29:04.247Z,11.58
2019-03-29T08:30:04.249Z,11.65
2019-03-29T08:31:04.251Z,11.75
2019-03-29T08:32:04.223Z,11.70
2019-03-29T08:33:04.384Z,11.73
2019-03-29T08:34:04.207Z,11.82
2019-03-29T08:35:04.181Z,11.88
2019-03-29T08:36:04.205Z,11.86
2019-03-29T08:37:05.025Z,11.96
2019-03-29T08:38:06.203Z,12.02
2019-03-29T08:39:04.150Z,11.94
2019-03-29T08:40:04.124Z,11.96
2019-03-29T08:41:04.179Z,11.95
2019-03-29T08:42:04.124Z,11.94
2019-03-29T08:43:04.097Z,11.83
2019-03-29T08:44:04.128Z,11.79
2019-03-29T08:45:04.109Z,11.76
2019-03-29T08:46:04.198Z,11.80
2019-03-29T08:47:04.062Z,11.76
2019-03-29T08:48:06.741Z,11.73
2019-03-29T08:49:05.036Z,11.70
2019-03-29T08:50:04.016Z,11.69
2019-03-29T08:51:04.099Z,11.64
2019-03-29T08:52:03.999Z,11.69
2019-03-29T08:53:04.055Z,11.67
2019-03-29T08:54:15.054Z,11.75
2019-03-29T08:55:03.961Z,11.75
2019-03-29T08:56:04.010Z,11.76
2019-03-29T08:57:03.962Z,11.76
2019-03-29T08:58:03.939Z,11.94
2019-03-29T08:59:03.928Z,11.96
2019-03-29T09:00:04.559Z,11.96
2019-03-29T09:01:03.952Z,11.98
2019-03-29T09:02:03.952Z,11.99
2019-03-29T09:03:03.884Z,11.99
2019-03-29T09:04:05.897Z,11.99
2019-03-29T09:05:03.848Z,11.94
2019-03-29T09:06:03.845Z,12.13
2019-03-29T09:07:06.094Z,12.09
2019-03-29T09:08:03.813Z,12.04
2019-03-29T09:09:03.807Z,12.04
2019-03-29T09:10:03.809Z,12.09
2019-03-29T09:11:07.326Z,12.07
2019-03-29T09:12:13.761Z,12.17
2019-03-29T09:13:08.544Z,12.20
2019-03-29T09:14:03.801Z,12.14
2019-03-29T09:15:04.247Z,12.07
2019-03-29T09:16:03.753Z,12.07
2019-03-29T09:17:03.756Z,11.98
2019-03-29T09:18:04.578Z,12.09
2019-03-29T09:19:03.703Z,11.96
2019-03-29T09:20:05.790Z,12.04
2019-03-29T09:21:07.696Z,12.01
2019-03-29T09:22:04.635Z,12.02
2019-03-29T09:23:03.686Z,12.07
2019-03-29T09:24:03.754Z,12.16
2019-03-29T09:25:03.710Z,12.07
2019-03-29T09:26:03.637Z,12.13
2019-03-29T09:27:03.637Z,12.13
2019-03-29T09:28:11.928Z,12.19
2019-03-29T09:31:04.811Z,12.10
2019-03-29T09:32:12.981Z,12.09
2019-03-29T09:33:03.620Z,12.07
2019-03-29T09:34:05.675Z,12.04
2019-03-29T09:35:06.679Z,12.09
2019-03-29T09:36:08.644Z,12.09
2019-03-29T09:37:10.281Z,12.09
2019-03-29T09:38:06.570Z,12.13
2019-03-29T09:39:07.593Z,12.13
2019-03-29T09:42:09.579Z,12.10
2019-03-29T09:43:08.004Z,12.13
2019-03-29T09:45:32.161Z,12.38
2019-03-29T09:47:38.514Z,12.31
2019-03-29T09:48:39.023Z,12.31
2019-03-29T09:49:32.079Z,12.38
2019-03-29T09:50:36.240Z,12.34
2019-03-29T09:51:32.070Z,12.41
2019-03-29T09:52:41.997Z,12.41
2019-03-29T09:53:35.052Z,12.42
2019-03-29T09:54:32.062Z,12.53
2019-03-29T09:55:32.004Z,12.54
2019-03-29T09:56:38.539Z,12.62
2019-03-29T09:57:37.205Z,12.64
2019-03-29T09:58:31.997Z,12.67
2019-03-29T09:59:36.031Z,12.54
2019-03-29T10:00:32.017Z,12.54
2019-03-29T10:02:33.258Z,12.53
2019-03-29T10:03:32.132Z,12.47
2019-03-29T10:06:33.211Z,12.38
2019-03-29T10:07:36.315Z,12.27
2019-03-29T10:08:31.871Z,12.34
2019-03-29T10:10:34.506Z,12.35
2019-03-29T10:11:31.924Z,12.38
2019-03-29T10:12:42.787Z,12.45
2019-03-29T10:13:32.851Z,12.45
2019-03-29T10:14:33.399Z,12.59
2019-03-29T10:16:21.471Z,12.68
2019-03-29T10:16:33.455Z,12.65
2019-03-29T10:18:33.105Z,12.82
2019-03-29T10:19:31.855Z,12.86
2019-03-29T10:20:32.890Z,12.83
2019-03-29T10:21:34.095Z,12.95
2019-03-29T10:22:34.580Z,13.07
2019-03-29T10:23:31.898Z,13.15
2019-03-29T10:24:31.689Z,13.25
2019-03-29T10:25:31.767Z,13.23
2019-03-29T10:26:31.746Z,13.28
2019-03-29T10:27:35.763Z,13.38
2019-03-29T10:28:32.202Z,13.39
2019-03-29T10:29:31.732Z,13.45
2019-03-29T10:31:33.539Z,13.42
2019-03-29T10:32:33.682Z,13.46
2019-03-29T10:33:31.827Z,13.51
2019-03-29T10:34:32.424Z,13.44
2019-03-29T10:35:33.712Z,13.41
2019-03-29T10:36:32.650Z,13.48
2019-03-29T10:37:33.621Z,13.44
2019-03-29T10:38:33.446Z,13.38
2019-03-29T10:39:31.712Z,13.44
2019-03-29T10:40:34.177Z,13.60
2019-03-29T10:42:57.712Z,13.59
2019-03-29T10:43:34.597Z,13.57
2019-03-29T10:52:01.068Z,14.07
2019-03-29T10:56:05.590Z,13.73
2019-03-29T10:59:27.828Z,13.97
2019-03-29T11:02:45.344Z,14.09
2019-03-29T11:03:45.460Z,14.14
2019-03-29T11:04:49.558Z,14.12
2019-03-29T11:05:45.328Z,14.04
2019-03-29T11:06:45.298Z,13.92
2019-03-29T11:07:45.300Z,13.97
2019-03-29T11:08:45.281Z,13.85
2019-03-29T11:09:45.309Z,13.79
2019-03-29T11:10:45.262Z,13.71
2019-03-29T11:11:45.341Z,13.59
2019-03-29T11:12:45.272Z,13.41
2019-03-29T11:13:45.308Z,13.38
2019-03-29T11:14:45.323Z,13.41
2019-03-29T11:15:45.258Z,13.36
2019-03-29T11:16:45.195Z,13.41
2019-03-29T11:17:47.268Z,13.42
2019-03-29T11:18:45.861Z,13.41
2019-03-29T11:19:45.193Z,13.29
2019-03-29T11:20:45.186Z,13.26
2019-03-29T11:21:45.149Z,13.29
2019-03-29T11:22:45.131Z,13.26
2019-03-29T11:23:45.165Z,13.26
2019-03-29T11:24:45.118Z,13.26
2019-03-29T11:25:48.386Z,13.30
2019-03-29T11:26:45.100Z,13.28
2019-03-29T11:27:45.090Z,13.29
2019-03-29T11:28:45.051Z,13.30
2019-03-29T11:29:45.078Z,13.29
2019-03-29T11:30:45.044Z,13.42
2019-03-29T11:31:45.051Z,13.39
2019-03-29T11:32:45.086Z,13.41
2019-03-29T11:33:45.036Z,13.49
2019-03-29T11:34:45.014Z,13.55
2019-03-29T11:35:44.990Z,13.59
2019-03-29T11:36:44.982Z,13.67
2019-03-29T11:37:44.965Z,13.75
2019-03-29T11:38:44.986Z,13.85
2019-03-29T11:39:45.003Z,13.89
2019-03-29T11:40:44.927Z,13.92
2019-03-29T11:41:44.961Z,13.89
2019-03-29T11:42:44.917Z,13.87
2019-03-29T11:43:44.907Z,13.88
2019-03-29T11:44:44.939Z,13.92
2019-03-29T11:45:45.037Z,13.91
2019-03-29T11:46:44.857Z,13.95
2019-03-29T11:47:44.894Z,14.02
2019-03-29T11:48:44.839Z,13.91
2019-03-29T11:49:44.863Z,13.73
2019-03-29T11:50:44.838Z,13.49
2019-03-29T11:51:51.363Z,13.28
2019-03-29T11:52:44.904Z,13.38
2019-03-29T11:53:44.870Z,13.41
2019-03-29T11:54:46.543Z,13.33
2019-03-29T11:55:44.777Z,13.51
2019-03-29T11:56:48.209Z,13.59
2019-03-29T11:58:09.913Z,13.63
2019-03-29T11:58:47.341Z,13.64
2019-03-29T11:59:44.804Z,13.82
2019-03-29T12:00:44.792Z,13.71
2019-03-29T12:01:44.756Z,13.60
2019-03-29T12:02:44.763Z,13.64
2019-03-29T12:03:44.701Z,13.62
2019-03-29T12:04:44.876Z,13.67
2019-03-29T12:05:50.081Z,13.73
2019-03-29T12:07:45.849Z,13.96
2019-03-29T12:08:44.658Z,13.91
2019-03-29T12:09:44.715Z,13.89
2019-03-29T12:10:45.013Z,13.97
2019-03-29T12:11:45.340Z,13.95
2019-03-29T12:13:01.447Z,13.91
2019-03-29T12:13:47.920Z,14.04
2019-03-29T12:14:44.599Z,14.06
2019-03-29T12:15:46.693Z,14.06
2019-03-29T12:16:48.358Z,14.06
2019-03-29T12:17:44.633Z,14.04
2019-03-29T12:18:45.294Z,14.04
2019-03-29T12:19:44.746Z,14.12
2019-03-29T12:20:44.579Z,14.12
2019-03-29T12:21:44.746Z,14.04
2019-03-29T12:22:48.389Z,13.92
2019-03-29T12:24:45.709Z,13.89
2019-03-29T12:25:46.628Z,13.96
2019-03-29T12:26:54.785Z,13.92
2019-03-29T12:27:44.423Z,13.78
2019-03-29T12:28:44.489Z,13.71
2019-03-29T12:29:44.833Z,13.63
2019-03-29T12:30:44.403Z,13.67
2019-03-29T12:31:45.398Z,13.62
2019-03-29T12:32:47.367Z,13.66
2019-03-29T12:33:44.370Z,13.55
2019-03-29T12:34:44.450Z,13.48
2019-03-29T12:36:47.013Z,13.46
2019-03-29T12:37:44.315Z,13.57
2019-03-29T12:38:44.428Z,13.63
2019-03-29T12:39:46.222Z,13.67
2019-03-29T12:40:45.296Z,13.70
2019-03-29T12:41:44.277Z,13.73
2019-03-29T12:42:45.933Z,13.75
2019-03-29T12:43:54.937Z,13.78
2019-03-29T12:44:45.239Z,13.77
2019-03-29T12:45:46.467Z,13.77
2019-03-29T12:46:44.212Z,13.91
2019-03-29T12:47:44.222Z,13.92
2019-03-29T12:48:50.092Z,13.99
2019-03-29T12:49:44.173Z,14.02
2019-03-29T12:50:44.194Z,14.04
2019-03-29T12:51:46.636Z,14.02
2019-03-29T12:52:44.399Z,13.82
2019-03-29T12:53:53.174Z,13.75
2019-03-29T12:54:54.937Z,13.67
2019-03-29T12:55:45.190Z,13.63
2019-03-29T12:56:44.914Z,13.69
2019-03-29T12:57:44.098Z,13.75
2019-03-29T12:58:55.301Z,13.73
2019-03-29T12:59:44.085Z,13.67
2019-03-29T13:00:45.323Z,13.71
2019-03-29T13:02:25.688Z,13.77
2019-03-29T13:02:45.043Z,13.75
2019-03-29T13:03:44.027Z,13.78
2019-03-29T13:04:46.935Z,13.69
2019-03-29T13:05:44.296Z,13.66
2019-03-29T13:06:44.061Z,13.62
2019-03-29T13:07:46.202Z,13.63
2019-03-29T13:08:43.973Z,13.66
2019-03-29T13:09:43.962Z,13.63
2019-03-29T13:10:52.874Z,13.69
2019-03-29T13:11:44.974Z,13.69
2019-03-29T13:12:43.946Z,13.82
2019-03-29T13:13:43.955Z,13.96
2019-03-29T13:14:49.949Z,13.88
2019-03-29T13:17:02.766Z,14.03
2019-03-29T13:18:00.437Z,13.97
2019-03-29T13:20:09.466Z,14.07
2019-03-29T13:21:09.457Z,13.88
2019-03-29T13:22:13.861Z,13.88
2019-03-29T13:23:13.705Z,13.73
2019-03-29T13:25:30.432Z,13.62
2019-03-29T13:26:36.416Z,13.59
2019-03-29T13:28:03.188Z,13.52
2019-03-29T13:28:52.968Z,13.49
2019-03-29T13:29:44.917Z,13.33
2019-03-29T13:30:33.471Z,13.46
2019-03-29T13:31:41.762Z,13.38
2019-03-29T13:32:38.041Z,13.36
2019-03-29T13:34:36.927Z,13.36
2019-03-29T13:36:14.659Z,13.41
2019-03-29T13:36:38.656Z,13.52
2019-03-29T13:38:20.296Z,13.48
2019-03-29T13:38:56.900Z,13.44
2019-03-29T13:39:38.878Z,13.51
2019-03-29T13:41:08.455Z,13.57
2019-03-29T13:41:41.517Z,13.59
2019-03-29T13:42:43.518Z,13.57
2019-03-29T13:43:37.503Z,13.48
2019-03-29T13:44:36.635Z,13.32
2019-03-29T13:45:38.502Z,13.44
2019-03-29T13:46:46.496Z,13.42
2019-03-29T13:47:38.649Z,13.45
2019-03-29T13:48:39.100Z,13.42